Aérodrome :
LOGIN :

S'inscrire | Disclaimer

   EN    FR    IT 

 










Légende :    VFR   VFR Marginal   IFR   IFR Intensif   IFR Très Intensif
Visi : 
Plafond : 
>= 8 km
>= 3000ft
5 à 8 km
1000 à 3000 ft
1500m à 5 km
500 à 1000 ft
800 à 1500m
200 à 500 ft
< 800m
< 200 ft
Symboles :   Orages  Brouillard  Fortes neiges  Fortes précipitations  Vent > 20 kt
SIGMETs :   Divers  Orages  Givrage  Turbulence  Onde Orograph.  Cendres Volcan.







- Altitude de l'aérodrome : 151 ft
- Code IATA : LSZ


LDLO - Lošinj Island

METAR N/A
TAF TAF LDLO
Valide du 19 à 12h jusqu'au 20 à 12h UTC


191125Z 1912/2012 12006KT CAVOK TX34/1912Z TN20/2005Z
BECMG 1918/1920 02015KT
PROB40
TEMPO 1920/2006 35020G30KT TSRA FEW040CB BKN050
Pas de NOTAMs connus pour ce terrain.
1 SIGMET publié pour la FIR Zagreb (LDZO) :
 
Orages noyés dans la masse
LDZO SIGMET 1 VALID 200030/200230 LDZA
LDZO ZAGREB FIR EMBD TS OBS WI N4613 E01550 - N4551 E01649 - N4510 E01607 - N4337 E01646 - N4305 E01551 - N4433 E01329 - N4532 E01326 - N4613 E01550 TOP FL360 MOV NE 10KT NC=



MET'MAP, la Météo Aéronautique d'un coup d'oeil ! - Copyright ORBIFLY Décembre 2007 - Disclaimer

ORBIFLY MET'MAP TEAM :

Programmation & Développement : Alexandra Zaïnal
Conception & Développement : Baudouin d'Aumeries
Co-Programmation & Développement : Marc-Olivier Méhu
Soutien technique & logistique : Manuel Goepfert

Contact : metmap@orbifly.com




SOURCES & CREDITS :

   NOAA